Airfield :
LOGIN :

Register | Disclaimer

   EN    FR    IT 

 










Legend :    VFR   Marginal VFR   IFR   Intensive IFR   Very Intensive IFR
Visi :
Ceiling :
>= 8 km
>= 3000ft
5 to 8 km
1000 to 3000 ft
1500m to 5 km
500 to 1000 ft
800 to 1500m
200 to 500 ft
< 800m
< 200 ft
Symbols :   Thunderstorms  Fog  Heavy snow  Heavy precipitations  Wind > 20 kt
SIGMETs :     Misc.  Thunderstorms  Icing  Turbulence  Mountain Waves  Volcanic Ashes






- Airport Elevation : 1649 ft
- IATA code : HHN


EDFH - Frankfurt-Hahn Rhineland-Palatinate

CURRENT METAR :
  • 250920Z 25007KT 180V300 7000 BKN009 15/13 Q1020

EXPIRED METARs :
  • 250850Z 26006KT 230V300 4000 BR FEW007 SCT014 14/11 Q1020
  • 250820Z 26007KT 230V310 5000 BR SCT006 14/12 Q1020
  • 250750Z 30007KT 260V320 4000 BR SCT006 13/13 Q1020
  • 250720Z 29006KT 240V320 4000 BR SCT004 13/13 Q1020
  • 250650Z 29006KT 260V040 5000 BR SCT005 13/13 Q1020

TAF TAF EDFH
Valid from the 25 at 06:00 until the 26 at 06:00 UTC


250500Z 2506/2606 28005KT 9999 SCT015
TEMPO 2506/2508 1200 BR BKN002
BECMG 2518/2521 18005KT



MET'MAP, your aeronautical weather chart ! - Copyright ORBIFLY December 2007 - Disclaimer

ORBIFLY MET'MAP TEAM :

Programming & Development : Alexandra Zaïnal
Concept & original design : Baudouin d'Aumeries
Assistance for programming : Marc-Olivier Méhu
Technical & hardware support : Manuel Goepfert

Contact : metmap@orbifly.com




SOURCES & CREDITS :

   NOAA